This is the latest recevied weather packets stored in our database for station/object OK2ILA-10. If no packets are shown the sender has not sent any weather packets the latest 10 day(s).
| Time | Temp. | Humidity | Pressure | Rain* | Wind** | Luminosity | Snow |
|---|---|---|---|---|---|---|---|
| 1788001306 | 23.33° C | 52% | 1017.6 hPa | - | - | - | - |
| 1788000710 | 24.44° C | 51% | 1017.7 hPa | - | - | - | - |
| 1788000706 | 24.44° C | 51% | 1017.7 hPa | - | - | - | - |
| 1788000106 | 25° C | 51% | 1017.7 hPa | - | - | - | - |
| 1787999505 | 23.89° C | 52% | 1017.6 hPa | - | - | - | - |
| 1787998909 | 23.33° C | 55% | 1017.7 hPa | - | - | - | - |
| 1787998905 | 23.33° C | 55% | 1017.7 hPa | - | - | - | - |
| 1787998309 | 24.44° C | 53% | 1017.7 hPa | - | - | - | - |
| 1787998305 | 24.44° C | 53% | 1017.7 hPa | - | - | - | - |
| 1787997709 | 24.44° C | 53% | 1017.7 hPa | - | - | - | - |
| 1787997705 | 24.44° C | 53% | 1017.7 hPa | - | - | - | - |
| 1787997110 | 24.44° C | 52% | 1017.7 hPa | - | - | - | - |
| 1787997108 | 24.44° C | 52% | 1017.7 hPa | - | - | - | - |
| 1787996508 | 24.44° C | 54% | 1017.8 hPa | - | - | - | - |
| 1787996504 | 24.44° C | 54% | 1017.8 hPa | - | - | - | - |
| 1787995908 | 23.89° C | 55% | 1017.7 hPa | - | - | - | - |
| 1787995904 | 23.89° C | 55% | 1017.7 hPa | - | - | - | - |
| 1787995308 | 23.89° C | 55% | 1017.6 hPa | - | - | - | - |
| 1787995304 | 23.89° C | 55% | 1017.6 hPa | - | - | - | - |
| 1787994708 | 24.44° C | 54% | 1017.4 hPa | - | - | - | - |
| 1787994704 | 24.44° C | 54% | 1017.4 hPa | - | - | - | - |
| 1787994107 | 24.44° C | 54% | 1017.4 hPa | - | - | - | - |
| 1787994105 | 24.44° C | 54% | 1017.4 hPa | - | - | - | - |
| 1787993507 | 26.11° C | 52% | 1017.5 hPa | - | - | - | - |
| 1787993504 | 26.11° C | 52% | 1017.5 hPa | - | - | - | - |
* Rain since midnight (hover to see other rain measurements)
** Current wind speed in m/s (hover to see current wind gust speed)